createdAt,value
2022-11-11T00:01:17.980Z,73.33
2022-11-11T00:03:44.854Z,80.57
2022-11-11T00:06:16.501Z,68.77
2022-11-11T00:08:47.302Z,78.10
2022-11-11T00:11:15.308Z,78.77
2022-11-11T00:13:43.875Z,85.83
2022-11-11T00:16:13.318Z,81.30
2022-11-11T00:19:00.439Z,86.37
2022-11-11T00:21:46.158Z,77.30
2022-11-11T00:24:46.608Z,73.30
2022-11-11T00:27:15.083Z,76.88
2022-11-11T00:29:46.642Z,76.57
2022-11-11T00:32:31.220Z,80.07
2022-11-11T00:35:18.269Z,75.77
2022-11-11T00:37:46.867Z,73.70
2022-11-11T00:40:14.741Z,84.00
2022-11-11T00:42:42.115Z,70.63
2022-11-11T00:45:10.004Z,61.73
2022-11-11T00:47:55.272Z,66.90
2022-11-11T00:50:47.838Z,58.88
2022-11-11T00:53:21.566Z,51.55
2022-11-11T00:55:52.622Z,57.47
2022-11-11T00:58:19.460Z,54.08
2022-11-11T01:00:47.315Z,45.53
2022-11-11T01:03:14.063Z,48.47
2022-11-11T01:05:40.895Z,53.85
2022-11-11T01:08:07.965Z,44.08
2022-11-11T01:10:43.261Z,49.07
2022-11-11T01:13:15.120Z,48.83
2022-11-11T01:15:44.998Z,46.05
2022-11-11T01:18:14.523Z,47.80
2022-11-11T01:23:10.277Z,44.08
2022-11-11T01:25:39.510Z,47.45
2022-11-11T01:28:07.165Z,44.72
2022-11-11T01:30:36.088Z,50.77
2022-11-11T01:33:03.165Z,42.40
2022-11-11T01:35:30.524Z,47.27
2022-11-11T01:37:59.340Z,46.97
2022-11-11T01:40:26.774Z,47.00
2022-11-11T01:43:06.388Z,42.10
2022-11-11T01:45:51.700Z,47.30
2022-11-11T01:48:43.315Z,52.63
2022-11-11T01:51:21.467Z,49.30
2022-11-11T01:53:54.777Z,51.60
2022-11-11T01:56:22.647Z,56.63
2022-11-11T01:58:54.180Z,50.27
2022-11-11T02:01:21.281Z,53.10
2022-11-11T02:04:08.852Z,52.33
2022-11-11T02:06:38.381Z,50.83
2022-11-11T02:11:55.102Z,59.03
2022-11-11T02:14:37.631Z,44.55
2022-11-11T02:17:08.120Z,44.70
2022-11-11T02:19:45.613Z,55.27
2022-11-11T02:22:19.655Z,49.07
2022-11-11T02:24:46.634Z,55.53
2022-11-11T02:27:17.243Z,45.70
2022-11-11T02:29:48.701Z,60.13
2022-11-11T02:32:15.851Z,46.93
2022-11-11T02:34:42.772Z,58.07
2022-11-11T02:37:10.670Z,50.90
2022-11-11T02:40:02.450Z,53.60
2022-11-11T02:42:31.231Z,59.73
2022-11-11T02:44:59.482Z,60.67
2022-11-11T02:47:27.353Z,60.83
2022-11-11T02:49:54.599Z,58.97
2022-11-11T02:52:22.044Z,52.90
2022-11-11T02:54:49.489Z,60.27
2022-11-11T02:57:17.800Z,70.63
2022-11-11T02:59:44.836Z,53.33
2022-11-11T03:02:12.283Z,60.57
2022-11-11T03:04:39.553Z,64.23
2022-11-11T03:07:06.822Z,78.23
2022-11-11T03:09:34.684Z,66.50
2022-11-11T03:12:01.621Z,71.53
2022-11-11T03:14:28.865Z,68.77
2022-11-11T03:17:14.713Z,71.47
2022-11-11T03:19:41.712Z,65.00
2022-11-11T03:25:14.080Z,64.30
2022-11-11T03:27:42.262Z,60.13
2022-11-11T03:30:09.506Z,55.30
2022-11-11T03:32:36.527Z,46.13
2022-11-11T03:35:03.336Z,44.97
2022-11-11T03:37:48.838Z,40.07
2022-11-11T03:40:16.036Z,40.93
2022-11-11T03:42:44.062Z,43.13
2022-11-11T03:45:11.148Z,41.03
2022-11-11T03:47:38.015Z,34.23
2022-11-11T03:50:05.491Z,44.75
2022-11-11T03:52:32.275Z,40.65
2022-11-11T03:54:59.258Z,36.92
2022-11-11T03:57:31.866Z,43.47
2022-11-11T03:59:58.873Z,41.25
2022-11-11T04:02:44.197Z,35.90
2022-11-11T04:05:29.506Z,37.00
2022-11-11T04:08:15.134Z,36.63
2022-11-11T04:10:41.832Z,41.27
2022-11-11T04:13:27.820Z,41.60
2022-11-11T04:16:06.553Z,45.70
2022-11-11T04:18:56.365Z,39.88
2022-11-11T04:21:43.320Z,35.47
2022-11-11T04:24:35.046Z,36.22
2022-11-11T04:27:07.739Z,35.38
2022-11-11T04:29:35.455Z,31.67
2022-11-11T04:32:32.051Z,40.90
2022-11-11T04:35:01.275Z,36.20
2022-11-11T04:37:31.706Z,35.83
2022-11-11T04:40:17.764Z,37.07
2022-11-11T04:42:44.566Z,42.60
2022-11-11T04:45:28.392Z,35.67
2022-11-11T04:48:05.816Z,32.92
2022-11-11T04:50:36.712Z,34.35
2022-11-11T04:53:05.927Z,35.20
2022-11-11T04:55:51.887Z,36.40
2022-11-11T04:58:21.779Z,36.72
2022-11-11T05:00:48.830Z,39.30
2022-11-11T05:03:16.603Z,31.30
2022-11-11T05:06:06.928Z,37.87
2022-11-11T05:08:53.831Z,35.47
2022-11-11T05:11:34.736Z,33.50
2022-11-11T05:14:22.230Z,36.67
2022-11-11T05:17:10.598Z,38.35
2022-11-11T05:19:56.528Z,31.65
2022-11-11T05:22:27.865Z,34.00
2022-11-11T05:25:13.235Z,38.73
2022-11-11T05:27:40.720Z,39.92
2022-11-11T05:30:10.118Z,41.35
2022-11-11T05:32:37.979Z,36.50
2022-11-11T05:35:05.767Z,37.13
2022-11-11T05:37:32.745Z,40.53
2022-11-11T05:39:59.804Z,37.57
2022-11-11T05:42:26.926Z,41.95
2022-11-11T05:44:54.114Z,37.85
2022-11-11T05:47:20.931Z,46.57
2022-11-11T05:49:47.934Z,39.80
2022-11-11T05:52:16.580Z,45.10
2022-11-11T05:54:43.881Z,39.03
2022-11-11T05:57:11.460Z,44.00
2022-11-11T05:59:38.204Z,46.83
2022-11-11T06:02:05.342Z,42.63
2022-11-11T06:04:34.534Z,45.37
2022-11-11T06:07:01.299Z,43.13
2022-11-11T06:09:28.364Z,47.10
2022-11-11T06:11:55.132Z,40.00
2022-11-11T06:14:21.897Z,45.80
2022-11-11T06:16:48.968Z,43.97
2022-11-11T06:19:15.745Z,45.90
2022-11-11T06:21:57.215Z,38.07
2022-11-11T06:24:26.685Z,40.97
2022-11-11T06:26:55.497Z,42.72
2022-11-11T06:31:50.066Z,36.83
2022-11-11T06:34:17.111Z,26.92
2022-11-11T06:36:44.274Z,27.88
2022-11-11T06:39:11.040Z,29.15
2022-11-11T06:41:38.065Z,28.23
2022-11-11T06:44:05.013Z,24.58
2022-11-11T06:46:32.190Z,26.45
2022-11-11T06:48:59.033Z,29.20
2022-11-11T06:51:26.094Z,26.92
2022-11-11T06:53:52.901Z,29.65
2022-11-11T06:56:19.624Z,27.65
2022-11-11T06:58:46.766Z,24.48
2022-11-11T07:01:14.122Z,27.05
2022-11-11T07:03:41.361Z,22.45
2022-11-11T07:06:08.274Z,27.80
2022-11-11T07:08:35.485Z,22.65
2022-11-11T07:11:09.333Z,20.40
2022-11-11T07:13:39.828Z,22.38
2022-11-11T07:16:06.832Z,21.30
2022-11-11T07:18:33.846Z,23.52
2022-11-11T07:21:00.593Z,25.63
2022-11-11T07:23:27.697Z,26.83
2022-11-11T07:25:54.411Z,22.55
2022-11-11T07:28:21.568Z,20.38
2022-11-11T07:30:48.545Z,26.52
2022-11-11T07:33:19.029Z,25.08
2022-11-11T07:35:48.797Z,21.58
2022-11-11T07:38:15.929Z,20.20
2022-11-11T07:40:42.720Z,20.00
2022-11-11T07:43:09.721Z,21.50
2022-11-11T07:45:36.424Z,22.15
2022-11-11T07:48:03.513Z,18.73
2022-11-11T07:50:30.321Z,23.58
2022-11-11T07:52:57.410Z,20.27
2022-11-11T07:55:24.186Z,21.15
2022-11-11T07:57:54.311Z,22.27
2022-11-11T08:00:21.187Z,24.60
2022-11-11T08:02:49.472Z,17.98
2022-11-11T08:05:16.994Z,19.08
2022-11-11T08:07:44.046Z,21.83
2022-11-11T08:10:12.156Z,21.35
2022-11-11T08:12:57.453Z,26.57
2022-11-11T08:15:24.217Z,19.38
2022-11-11T08:17:51.289Z,18.80
2022-11-11T08:20:18.425Z,20.73
2022-11-11T08:23:06.986Z,17.98
2022-11-11T08:25:32.431Z,22.08
2022-11-11T08:28:01.282Z,20.20
2022-11-11T08:30:28.398Z,19.52
2022-11-11T08:33:43.653Z,21.83
2022-11-11T08:35:50.338Z,25.55
2022-11-11T08:38:17.133Z,25.60
2022-11-11T08:40:43.893Z,24.20
2022-11-11T08:43:10.972Z,23.92
2022-11-11T08:45:38.145Z,24.45
2022-11-11T08:48:05.603Z,23.13
2022-11-11T08:50:32.360Z,29.63
2022-11-11T08:52:59.409Z,27.58
2022-11-11T08:55:26.192Z,23.02
2022-11-11T08:58:01.334Z,18.42
2022-11-11T09:00:28.347Z,20.95
2022-11-11T09:03:00.140Z,18.75
2022-11-11T09:05:26.952Z,19.25
2022-11-11T09:07:54.138Z,17.15
2022-11-11T09:10:21.139Z,22.20
2022-11-11T09:12:47.914Z,19.33
2022-11-11T09:15:14.929Z,20.48
2022-11-11T09:17:47.593Z,24.40
2022-11-11T09:20:14.925Z,22.45
2022-11-11T09:22:46.110Z,17.45
2022-11-11T09:25:13.971Z,20.35
2022-11-11T09:27:41.225Z,22.35
2022-11-11T09:30:10.362Z,18.33
2022-11-11T09:32:37.462Z,17.85
2022-11-11T09:35:04.889Z,15.93
2022-11-11T09:37:31.646Z,19.08
2022-11-11T09:39:58.757Z,17.33
2022-11-11T09:42:43.852Z,18.67
2022-11-11T09:45:13.903Z,14.93
2022-11-11T09:48:13.458Z,16.70
2022-11-11T09:50:43.527Z,15.30
2022-11-11T09:53:40.619Z,17.17
2022-11-11T09:56:30.669Z,20.10
2022-11-11T09:59:04.356Z,19.63
2022-11-11T10:01:50.247Z,19.73
2022-11-11T10:04:26.862Z,18.52
2022-11-11T10:07:18.747Z,20.92
2022-11-11T10:10:00.667Z,16.95
2022-11-11T10:12:43.158Z,20.38
2022-11-11T10:15:13.884Z,15.88
2022-11-11T10:17:53.069Z,17.33
2022-11-11T10:20:30.734Z,17.77
2022-11-11T10:23:14.433Z,18.00
2022-11-11T10:26:08.196Z,18.83
2022-11-11T10:28:39.527Z,13.82
2022-11-11T10:31:15.696Z,20.70
2022-11-11T10:33:51.196Z,16.75
2022-11-11T10:36:20.621Z,14.05
2022-11-11T10:38:55.652Z,16.08
2022-11-11T10:41:46.648Z,13.75
2022-11-11T10:44:28.612Z,13.15
2022-11-11T10:47:06.911Z,12.63
2022-11-11T10:49:39.181Z,11.25
2022-11-11T10:52:30.895Z,12.68
2022-11-11T10:55:16.816Z,15.48
2022-11-11T10:58:25.172Z,12.32
2022-11-11T11:00:55.665Z,14.25
2022-11-11T11:03:29.415Z,15.18
2022-11-11T11:06:25.698Z,21.50
2022-11-11T11:09:09.186Z,11.18
2022-11-11T11:11:42.084Z,15.18
2022-11-11T11:14:19.777Z,13.35
2022-11-11T11:16:55.560Z,19.08
2022-11-11T11:19:25.039Z,14.25
2022-11-11T11:21:57.423Z,12.15
2022-11-11T11:24:32.778Z,13.88
2022-11-11T11:27:07.119Z,13.80
2022-11-11T11:29:34.025Z,14.70
2022-11-11T11:32:21.860Z,13.07
2022-11-11T11:34:50.000Z,14.55
2022-11-11T11:37:19.434Z,13.68
2022-11-11T11:39:46.985Z,14.10
2022-11-11T11:42:38.333Z,13.98
2022-11-11T11:45:20.770Z,19.55
2022-11-11T11:48:16.534Z,12.65
2022-11-11T11:50:57.161Z,16.00
2022-11-11T11:53:34.908Z,13.65
2022-11-11T11:56:20.352Z,15.07
2022-11-11T11:59:05.391Z,14.02
2022-11-11T12:01:54.724Z,17.27
2022-11-11T12:04:30.742Z,13.07
2022-11-11T12:07:06.280Z,14.60
2022-11-11T12:09:51.912Z,12.90
2022-11-11T12:12:40.165Z,12.95
2022-11-11T12:15:07.154Z,13.25
2022-11-11T12:17:52.696Z,20.02
2022-11-11T12:20:46.107Z,22.00
2022-11-11T12:23:34.659Z,26.10
2022-11-11T12:26:18.185Z,42.67
2022-11-11T12:29:02.997Z,18.63
2022-11-11T12:31:36.052Z,16.38
2022-11-11T12:34:08.520Z,13.88
2022-11-11T12:36:43.464Z,23.55
2022-11-11T12:39:47.816Z,7.40
2022-11-11T12:42:37.185Z,8.32
2022-11-11T12:45:07.070Z,9.23
2022-11-11T12:47:49.008Z,14.52
2022-11-11T12:50:23.545Z,6.82
2022-11-11T12:53:23.937Z,8.50
2022-11-11T12:56:09.325Z,9.23
2022-11-11T12:58:48.565Z,9.27
2022-11-11T13:01:36.542Z,6.43
2022-11-11T13:04:25.172Z,6.27
2022-11-11T13:07:08.870Z,10.53
2022-11-11T13:10:03.148Z,5.50
2022-11-11T13:12:32.829Z,10.32
2022-11-11T13:15:25.345Z,6.43
2022-11-11T13:17:52.597Z,9.35
2022-11-11T13:20:44.639Z,6.60
2022-11-11T13:23:12.047Z,5.88
2022-11-11T13:25:50.948Z,8.88
2022-11-11T13:28:29.390Z,7.80
2022-11-11T13:31:20.034Z,7.97
2022-11-11T13:33:50.277Z,7.82
2022-11-11T13:36:21.515Z,16.17
2022-11-11T13:39:05.865Z,15.57
2022-11-11T13:41:39.373Z,10.40
2022-11-11T13:44:09.377Z,11.23
2022-11-11T13:46:50.096Z,8.38
2022-11-11T13:49:29.182Z,7.40
2022-11-11T13:52:01.347Z,8.98
2022-11-11T13:54:28.112Z,13.18
2022-11-11T13:57:04.687Z,9.85
2022-11-11T13:59:37.222Z,16.77
2022-11-11T14:02:19.228Z,16.38
2022-11-11T14:05:12.736Z,21.42
2022-11-11T14:07:48.643Z,19.73
2022-11-11T14:10:18.553Z,17.98
2022-11-11T14:12:56.425Z,17.40
2022-11-11T14:15:50.256Z,20.15
2022-11-11T14:18:19.931Z,22.77
2022-11-11T14:20:52.001Z,27.13
2022-11-11T14:23:18.690Z,29.85
2022-11-11T14:25:46.775Z,29.13
2022-11-11T14:28:39.060Z,28.97
2022-11-11T14:31:16.055Z,35.40
2022-11-11T14:33:51.432Z,48.92
2022-11-11T14:36:42.550Z,57.38
2022-11-11T14:39:37.447Z,70.70
2022-11-11T14:42:05.375Z,48.80
2022-11-11T14:44:32.381Z,53.15
2022-11-11T14:47:08.215Z,46.63
2022-11-11T14:49:44.291Z,45.90
2022-11-11T14:52:25.928Z,72.53
2022-11-11T14:55:02.306Z,101.25
2022-11-11T14:57:41.733Z,97.88
2022-11-11T15:00:16.118Z,114.50
2022-11-11T15:02:51.332Z,75.65
2022-11-11T15:05:31.117Z,64.80
2022-11-11T15:08:20.341Z,63.47
2022-11-11T15:11:01.727Z,62.65
2022-11-11T15:13:44.077Z,63.00
2022-11-11T15:16:17.269Z,69.82
2022-11-11T15:18:50.073Z,76.72
2022-11-11T15:21:30.778Z,124.40
2022-11-11T15:24:21.649Z,147.75
2022-11-11T15:27:02.783Z,160.82
2022-11-11T15:30:01.614Z,152.88
2022-11-11T15:33:00.893Z,121.47
2022-11-11T15:35:53.131Z,84.82
2022-11-11T15:38:21.050Z,87.60
2022-11-11T15:40:51.261Z,73.60
2022-11-11T15:43:24.845Z,85.18
2022-11-11T15:46:05.840Z,78.82
2022-11-11T15:48:42.388Z,56.95
2022-11-11T15:51:21.668Z,53.42
2022-11-11T15:53:49.563Z,52.70
2022-11-11T15:56:33.676Z,58.15
2022-11-11T15:59:23.390Z,52.55
2022-11-11T16:01:51.959Z,50.47
2022-11-11T16:07:20.496Z,64.53
2022-11-11T16:09:47.619Z,62.58
2022-11-11T16:12:20.544Z,69.43
2022-11-11T16:14:52.146Z,68.75
2022-11-11T16:17:19.876Z,72.45
2022-11-11T16:19:49.682Z,55.13
2022-11-11T16:22:32.364Z,58.72
2022-11-11T16:24:59.629Z,61.75
2022-11-11T16:27:30.808Z,58.45
2022-11-11T16:30:16.105Z,58.95
2022-11-11T16:32:43.188Z,58.17
2022-11-11T16:35:33.126Z,63.28
2022-11-11T16:38:00.280Z,57.78
2022-11-11T16:40:32.766Z,61.25
2022-11-11T16:43:20.275Z,43.13
2022-11-11T16:45:49.767Z,56.10
2022-11-11T16:48:37.922Z,73.32
2022-11-11T16:51:07.526Z,78.00
2022-11-11T16:56:04.916Z,89.93
2022-11-11T16:58:32.109Z,88.63
2022-11-11T17:01:01.710Z,90.57
2022-11-11T17:03:29.589Z,78.22
2022-11-11T17:05:57.994Z,77.25
2022-11-11T17:08:45.428Z,89.47
2022-11-11T17:11:40.301Z,84.38
2022-11-11T17:14:07.300Z,77.72
2022-11-11T17:16:34.377Z,71.07
2022-11-11T17:19:02.579Z,53.22
2022-11-11T17:21:29.595Z,49.63
2022-11-11T17:23:56.335Z,48.90
2022-11-11T17:26:23.338Z,42.47
2022-11-11T17:28:50.399Z,48.63
2022-11-11T17:31:17.236Z,55.70
2022-11-11T17:33:44.282Z,55.75
2022-11-11T17:36:11.094Z,39.38
2022-11-11T17:38:38.542Z,37.20
2022-11-11T17:41:05.793Z,34.75
2022-11-11T17:43:33.435Z,30.45
2022-11-11T17:46:01.274Z,31.17
2022-11-11T17:48:28.334Z,29.90
2022-11-11T17:50:55.106Z,39.25
2022-11-11T17:53:22.202Z,32.28
2022-11-11T17:55:49.023Z,42.65
2022-11-11T17:58:16.174Z,35.13
2022-11-11T18:00:42.895Z,35.15
2022-11-11T18:03:09.972Z,37.55
2022-11-11T18:05:36.947Z,40.95
2022-11-11T18:08:04.285Z,42.60
2022-11-11T18:10:31.084Z,45.75
2022-11-11T18:12:58.734Z,77.13
2022-11-11T18:15:25.458Z,69.18
2022-11-11T18:17:52.572Z,46.90
2022-11-11T18:20:19.303Z,43.95
2022-11-11T18:22:46.329Z,36.22
2022-11-11T18:25:14.150Z,39.88
2022-11-11T18:27:41.201Z,41.22
2022-11-11T18:30:08.842Z,35.92
2022-11-11T18:32:35.878Z,36.97
2022-11-11T18:35:02.678Z,38.92
2022-11-11T18:37:29.760Z,41.42
2022-11-11T18:39:56.523Z,40.55
2022-11-11T18:42:23.699Z,190.85
2022-11-11T18:44:50.457Z,61.45
2022-11-11T18:47:17.516Z,70.22
2022-11-11T18:49:44.239Z,86.18
2022-11-11T18:52:11.304Z,39.70
2022-11-11T18:54:38.112Z,50.67
2022-11-11T18:57:05.147Z,58.40
2022-11-11T18:59:31.924Z,52.67
2022-11-11T19:01:58.993Z,40.28
2022-11-11T19:04:25.928Z,35.10
2022-11-11T19:06:53.268Z,38.08
2022-11-11T19:09:20.057Z,53.88
2022-11-11T19:11:47.356Z,136.05
2022-11-11T19:14:19.914Z,40.05
2022-11-11T19:16:48.716Z,104.10
2022-11-11T19:19:16.358Z,243.93
2022-11-11T19:21:43.376Z,362.23
2022-11-11T19:24:10.694Z,234.13
2022-11-11T19:26:37.788Z,60.60
2022-11-11T19:29:06.038Z,50.30
2022-11-11T19:31:33.427Z,33.95
2022-11-11T19:34:00.616Z,44.83
2022-11-11T19:36:29.579Z,50.53
2022-11-11T19:39:01.316Z,70.60
2022-11-11T19:41:31.347Z,39.60
2022-11-11T19:43:58.386Z,38.17
2022-11-11T19:46:27.935Z,40.35
2022-11-11T19:51:24.244Z,31.52
2022-11-11T19:53:56.305Z,38.60
2022-11-11T19:56:28.640Z,33.35
2022-11-11T19:58:55.459Z,35.45
2022-11-11T20:01:25.411Z,30.93
2022-11-11T20:03:52.530Z,27.85
2022-11-11T20:06:29.083Z,33.10
2022-11-11T20:08:58.171Z,32.03
2022-11-11T20:13:53.675Z,34.20
2022-11-11T20:16:21.028Z,37.63
2022-11-11T20:18:47.880Z,33.75
2022-11-11T20:21:15.193Z,34.25
2022-11-11T20:23:42.453Z,34.90
2022-11-11T20:26:15.177Z,32.22
2022-11-11T20:28:43.455Z,35.67
2022-11-11T20:31:12.808Z,36.25
2022-11-11T20:33:40.105Z,43.88
2022-11-11T20:36:09.820Z,41.80
2022-11-11T20:38:37.634Z,41.47
2022-11-11T20:41:11.591Z,37.78
2022-11-11T20:43:38.948Z,34.78
2022-11-11T20:46:07.089Z,40.42
2022-11-11T20:48:34.871Z,39.00
2022-11-11T20:51:10.265Z,34.90
2022-11-11T20:53:37.567Z,34.15
2022-11-11T20:56:11.240Z,32.28
2022-11-11T20:58:39.565Z,32.50
2022-11-11T21:01:08.544Z,29.00
2022-11-11T21:03:35.829Z,32.22
2022-11-11T21:06:07.838Z,29.92
2022-11-11T21:08:37.088Z,30.65
2022-11-11T21:11:04.886Z,27.85
2022-11-11T21:13:32.722Z,28.02
2022-11-11T21:16:20.650Z,32.80
2022-11-11T21:18:49.067Z,30.20
2022-11-11T21:21:20.199Z,25.80
2022-11-11T21:23:48.006Z,29.33
2022-11-11T21:26:17.342Z,28.10
2022-11-11T21:28:45.964Z,24.70
2022-11-11T21:31:40.169Z,34.63
2022-11-11T21:34:10.023Z,22.77
2022-11-11T21:36:39.540Z,25.42
2022-11-11T21:39:07.738Z,20.83
2022-11-11T21:41:37.014Z,26.88
2022-11-11T21:44:05.642Z,25.48
2022-11-11T21:46:34.701Z,28.00
2022-11-11T21:49:02.127Z,23.02
2022-11-11T21:51:31.169Z,31.13
2022-11-11T21:56:31.920Z,23.27
2022-11-11T21:59:01.123Z,23.92
2022-11-11T22:01:31.116Z,17.60
2022-11-11T22:04:04.814Z,23.90
2022-11-11T22:06:32.326Z,21.95
2022-11-11T22:09:00.367Z,20.65
2022-11-11T22:11:30.668Z,24.92
2022-11-11T22:13:58.924Z,31.25
2022-11-11T22:16:28.443Z,22.50
2022-11-11T22:19:00.976Z,22.83
2022-11-11T22:21:32.833Z,24.75
2022-11-11T22:24:03.182Z,22.95
2022-11-11T22:26:35.179Z,18.83
2022-11-11T22:29:03.744Z,21.65
2022-11-11T22:31:34.518Z,23.63
2022-11-11T22:34:03.151Z,20.40
2022-11-11T22:36:32.445Z,22.40
2022-11-11T22:39:00.224Z,21.77
2022-11-11T22:41:30.204Z,21.88
2022-11-11T22:44:00.282Z,22.20
2022-11-11T22:46:29.497Z,20.77
2022-11-11T22:48:58.604Z,24.30
2022-11-11T22:51:28.143Z,18.95
2022-11-11T22:56:23.602Z,19.87
2022-11-11T22:58:50.935Z,21.75
2022-11-11T23:01:30.025Z,21.05
2022-11-11T23:04:00.256Z,16.42
2022-11-11T23:09:06.928Z,31.13
2022-11-11T23:11:36.195Z,23.83
2022-11-11T23:16:34.872Z,21.02
2022-11-11T23:19:04.316Z,23.80
2022-11-11T23:21:31.839Z,23.15
2022-11-11T23:23:59.120Z,21.38
2022-11-11T23:26:28.515Z,20.92
2022-11-11T23:28:55.585Z,18.88
2022-11-11T23:31:26.005Z,18.42
2022-11-11T23:33:54.020Z,22.95
2022-11-11T23:36:23.087Z,18.67
2022-11-11T23:38:50.509Z,21.88
2022-11-11T23:41:17.871Z,18.63
2022-11-11T23:43:45.255Z,18.40
2022-11-11T23:46:12.326Z,19.15
2022-11-11T23:48:39.146Z,19.25
2022-11-11T23:51:06.292Z,18.70
2022-11-11T23:53:33.842Z,18.65
2022-11-11T23:56:01.612Z,24.40
2022-11-11T23:58:29.007Z,22.25
